createdAt,value
2022-10-26T00:00:55.108Z,0.00
2022-10-26T00:01:55.304Z,0.00
2022-10-26T00:02:55.260Z,0.00
2022-10-26T00:03:55.185Z,0.00
2022-10-26T00:04:55.214Z,0.00
2022-10-26T00:05:55.241Z,0.00
2022-10-26T00:06:55.268Z,0.00
2022-10-26T00:07:55.294Z,0.00
2022-10-26T00:08:55.321Z,0.00
2022-10-26T00:09:55.346Z,0.00
2022-10-26T00:10:55.375Z,0.00
2022-10-26T00:11:55.397Z,0.00
2022-10-26T00:12:55.446Z,0.00
2022-10-26T00:13:55.452Z,0.00
2022-10-26T00:14:55.480Z,0.00
2022-10-26T00:15:55.568Z,0.00
2022-10-26T00:16:55.533Z,0.00
2022-10-26T00:17:55.558Z,0.00
2022-10-26T00:18:55.586Z,0.00
2022-10-26T00:19:55.610Z,0.00
2022-10-26T00:20:55.639Z,0.00
2022-10-26T00:21:55.665Z,0.00
2022-10-26T00:22:55.691Z,0.00
2022-10-26T00:23:55.716Z,0.00
2022-10-26T00:24:55.749Z,0.00
2022-10-26T00:25:55.770Z,0.00
2022-10-26T00:26:55.797Z,0.00
2022-10-26T00:27:55.823Z,0.00
2022-10-26T00:28:55.881Z,0.00
2022-10-26T00:29:55.877Z,0.00
2022-10-26T00:30:55.904Z,0.00
2022-10-26T00:31:55.933Z,0.00
2022-10-26T00:32:55.958Z,0.00
2022-10-26T00:33:55.986Z,0.00
2022-10-26T00:34:56.009Z,0.00
2022-10-26T00:35:56.038Z,0.00
2022-10-26T00:36:56.063Z,0.00
2022-10-26T00:37:56.095Z,0.00
2022-10-26T00:38:56.117Z,0.00
2022-10-26T00:39:56.146Z,0.00
2022-10-26T00:41:56.198Z,0.00
2022-10-26T00:42:56.222Z,0.00
2022-10-26T00:43:56.252Z,0.00
2022-10-26T00:44:56.295Z,0.00
2022-10-26T00:45:56.304Z,0.00
2022-10-26T00:46:56.329Z,0.00
2022-10-26T00:47:56.358Z,0.00
2022-10-26T00:48:56.385Z,0.00
2022-10-26T00:49:56.413Z,0.00
2022-10-26T00:50:56.437Z,0.00
2022-10-26T00:51:56.464Z,0.00
2022-10-26T00:52:56.489Z,0.00
2022-10-26T00:53:56.519Z,0.00
2022-10-26T00:54:56.542Z,0.00
2022-10-26T00:55:56.571Z,0.00
2022-10-26T00:56:56.597Z,0.00
2022-10-26T00:57:56.625Z,0.00
2022-10-26T00:58:56.650Z,0.00
2022-10-26T00:59:56.679Z,0.00
2022-10-26T01:00:56.725Z,0.00
2022-10-26T01:01:56.732Z,0.00
2022-10-26T01:02:56.755Z,0.00
2022-10-26T01:03:56.911Z,0.00
2022-10-26T01:04:56.809Z,0.00
2022-10-26T01:05:56.838Z,0.00
2022-10-26T01:06:56.863Z,0.00
2022-10-26T01:07:56.894Z,0.00
2022-10-26T01:08:56.917Z,0.00
2022-10-26T01:09:56.947Z,0.00
2022-10-26T01:10:56.971Z,0.00
2022-10-26T01:11:57.000Z,0.00
2022-10-26T01:12:57.025Z,0.00
2022-10-26T01:13:57.054Z,0.00
2022-10-26T01:14:57.076Z,0.00
2022-10-26T01:15:57.104Z,0.00
2022-10-26T01:16:57.223Z,0.00
2022-10-26T01:17:57.159Z,0.00
2022-10-26T01:18:57.183Z,0.00
2022-10-26T01:19:57.212Z,0.00
2022-10-26T01:20:57.237Z,0.00
2022-10-26T01:21:57.265Z,0.00
2022-10-26T01:22:57.289Z,0.00
2022-10-26T01:23:57.317Z,0.00
2022-10-26T01:24:57.344Z,0.00
2022-10-26T01:25:57.373Z,0.00
2022-10-26T01:26:57.400Z,0.00
2022-10-26T01:27:57.429Z,0.00
2022-10-26T01:28:57.449Z,0.00
2022-10-26T01:29:57.479Z,0.00
2022-10-26T01:30:57.504Z,0.00
2022-10-26T01:31:57.532Z,0.00
2022-10-26T01:32:57.591Z,0.00
2022-10-26T01:33:57.586Z,0.00
2022-10-26T01:34:57.613Z,0.00
2022-10-26T01:35:57.639Z,0.00
2022-10-26T01:36:57.668Z,0.00
2022-10-26T01:37:57.692Z,0.00
2022-10-26T01:38:57.717Z,0.00
2022-10-26T01:39:57.747Z,0.00
2022-10-26T01:40:57.770Z,0.00
2022-10-26T01:41:57.799Z,0.00
2022-10-26T01:42:57.824Z,0.00
2022-10-26T01:43:57.852Z,0.00
2022-10-26T01:44:57.886Z,0.00
2022-10-26T01:45:57.908Z,0.00
2022-10-26T01:46:57.931Z,0.00
2022-10-26T01:47:58.037Z,0.00
2022-10-26T01:48:58.001Z,0.00
2022-10-26T01:49:58.013Z,0.00
2022-10-26T01:50:58.037Z,0.00
2022-10-26T01:51:58.066Z,0.00
2022-10-26T01:52:58.093Z,0.00
2022-10-26T01:53:58.120Z,0.00
2022-10-26T01:54:58.145Z,0.00
2022-10-26T01:55:58.175Z,0.00
2022-10-26T01:56:58.197Z,0.00
2022-10-26T01:57:58.227Z,0.00
2022-10-26T01:58:58.254Z,0.00
2022-10-26T01:59:58.279Z,0.00
2022-10-26T02:00:58.304Z,0.00
2022-10-26T02:01:58.334Z,0.00
2022-10-26T02:02:58.357Z,0.00
2022-10-26T02:03:58.419Z,0.00
2022-10-26T02:04:58.436Z,0.00
2022-10-26T02:05:58.441Z,0.00
2022-10-26T02:06:58.467Z,0.00
2022-10-26T02:07:58.494Z,0.00
2022-10-26T02:08:58.519Z,0.00
2022-10-26T02:09:58.548Z,0.00
2022-10-26T02:10:58.572Z,0.00
2022-10-26T02:11:58.602Z,0.00
2022-10-26T02:12:58.625Z,0.00
2022-10-26T02:13:58.655Z,0.00
2022-10-26T02:14:58.681Z,0.00
2022-10-26T02:15:58.709Z,0.00
2022-10-26T02:16:58.761Z,0.00
2022-10-26T02:17:58.763Z,0.00
2022-10-26T02:18:58.787Z,0.00
2022-10-26T02:19:58.816Z,0.00
2022-10-26T02:20:58.862Z,0.00
2022-10-26T02:21:58.870Z,0.00
2022-10-26T02:22:58.894Z,0.00
2022-10-26T02:23:59.020Z,0.00
2022-10-26T02:24:58.949Z,0.00
2022-10-26T02:25:58.976Z,0.00
2022-10-26T02:26:59.008Z,0.00
2022-10-26T02:27:59.035Z,0.00
2022-10-26T02:28:59.057Z,0.00
2022-10-26T02:29:59.090Z,0.00
2022-10-26T02:30:59.115Z,0.00
2022-10-26T02:31:59.139Z,0.00
2022-10-26T02:32:59.164Z,0.00
2022-10-26T02:33:59.191Z,0.00
2022-10-26T02:34:59.216Z,0.00
2022-10-26T02:35:59.245Z,0.00
2022-10-26T02:36:59.291Z,0.00
2022-10-26T02:37:59.305Z,0.00
2022-10-26T02:38:59.325Z,0.00
2022-10-26T02:39:59.352Z,0.00
2022-10-26T02:40:59.378Z,0.00
2022-10-26T02:41:59.408Z,0.00
2022-10-26T02:42:59.432Z,0.00
2022-10-26T02:43:59.460Z,0.00
2022-10-26T02:44:59.487Z,0.00
2022-10-26T02:45:59.516Z,0.00
2022-10-26T02:46:59.540Z,0.00
2022-10-26T02:47:59.567Z,0.00
2022-10-26T02:48:59.594Z,0.00
2022-10-26T02:49:59.622Z,0.00
2022-10-26T02:50:59.647Z,0.00
2022-10-26T02:51:59.675Z,0.00
2022-10-26T02:52:59.720Z,0.00
2022-10-26T02:53:59.733Z,0.00
2022-10-26T02:54:59.754Z,0.00
2022-10-26T02:55:59.782Z,0.00
2022-10-26T02:56:59.809Z,0.00
2022-10-26T02:57:59.838Z,0.00
2022-10-26T02:58:59.863Z,0.00
2022-10-26T02:59:59.962Z,0.00
2022-10-26T03:00:59.919Z,0.00
2022-10-26T03:01:59.946Z,0.00
2022-10-26T03:02:59.971Z,0.00
2022-10-26T03:04:00.056Z,0.00
2022-10-26T03:05:00.025Z,0.00
2022-10-26T03:06:00.053Z,0.00
2022-10-26T03:07:00.087Z,0.00
2022-10-26T03:08:00.107Z,0.00
2022-10-26T03:09:00.156Z,0.00
2022-10-26T03:10:00.161Z,0.00
2022-10-26T03:11:00.185Z,0.00
2022-10-26T03:12:00.214Z,0.00
2022-10-26T03:13:00.241Z,0.00
2022-10-26T03:14:00.271Z,0.00
2022-10-26T03:15:00.294Z,0.00
2022-10-26T03:16:00.323Z,0.00
2022-10-26T03:17:00.349Z,0.00
2022-10-26T03:18:00.397Z,0.00
2022-10-26T03:19:03.631Z,0.00
2022-10-26T03:20:00.437Z,0.00
2022-10-26T03:21:00.465Z,0.00
2022-10-26T03:22:00.485Z,0.00
2022-10-26T03:23:00.509Z,0.00
2022-10-26T03:24:00.538Z,0.00
2022-10-26T03:25:00.655Z,0.00
2022-10-26T03:26:00.593Z,0.00
2022-10-26T03:27:02.291Z,0.00
2022-10-26T03:28:00.647Z,0.00
2022-10-26T03:29:00.672Z,0.00
2022-10-26T03:30:00.706Z,0.00
2022-10-26T03:31:00.728Z,0.00
2022-10-26T03:32:00.754Z,0.00
2022-10-26T03:33:00.780Z,0.00
2022-10-26T03:34:00.809Z,0.00
2022-10-26T03:35:00.836Z,0.00
2022-10-26T03:36:00.862Z,0.00
2022-10-26T03:37:00.889Z,0.00
2022-10-26T03:38:00.918Z,0.00
2022-10-26T03:39:00.940Z,0.00
2022-10-26T03:40:00.969Z,0.00
2022-10-26T03:41:01.014Z,0.00
2022-10-26T03:42:01.024Z,0.00
2022-10-26T03:43:01.049Z,0.00
2022-10-26T03:44:01.078Z,0.00
2022-10-26T03:45:01.120Z,0.00
2022-10-26T03:46:01.133Z,0.00
2022-10-26T03:47:01.155Z,0.00
2022-10-26T03:48:01.186Z,0.00
2022-10-26T03:49:01.213Z,0.00
2022-10-26T03:50:01.286Z,0.00
2022-10-26T03:51:01.264Z,0.00
2022-10-26T03:52:01.294Z,0.00
2022-10-26T03:53:01.318Z,0.00
2022-10-26T03:54:01.346Z,0.00
2022-10-26T03:55:01.372Z,0.00
2022-10-26T03:56:01.404Z,0.00
2022-10-26T03:57:01.445Z,0.00
2022-10-26T03:58:01.456Z,0.00
2022-10-26T03:59:01.480Z,0.00
2022-10-26T04:00:01.510Z,0.00
2022-10-26T04:01:01.541Z,0.00
2022-10-26T04:02:01.605Z,0.00
2022-10-26T04:03:01.588Z,0.00
2022-10-26T04:04:01.745Z,0.00
2022-10-26T04:05:01.646Z,0.00
2022-10-26T04:06:01.677Z,0.00
2022-10-26T04:07:01.697Z,0.00
2022-10-26T04:08:01.727Z,0.00
2022-10-26T04:09:01.759Z,0.00
2022-10-26T04:10:01.781Z,0.00
2022-10-26T04:11:03.941Z,0.00
2022-10-26T04:12:01.835Z,0.00
2022-10-26T04:13:01.913Z,0.00
2022-10-26T04:14:01.888Z,0.00
2022-10-26T04:16:01.944Z,0.00
2022-10-26T04:17:01.967Z,0.00
2022-10-26T04:18:02.014Z,0.00
2022-10-26T04:19:02.022Z,0.00
2022-10-26T04:20:02.051Z,0.00
2022-10-26T04:21:02.080Z,0.00
2022-10-26T04:22:02.108Z,0.00
2022-10-26T04:23:02.142Z,0.00
2022-10-26T04:24:02.160Z,0.00
2022-10-26T04:25:02.188Z,0.00
2022-10-26T04:26:02.214Z,0.00
2022-10-26T04:27:02.243Z,0.00
2022-10-26T04:28:02.268Z,0.00
2022-10-26T04:29:02.315Z,0.00
2022-10-26T04:30:02.327Z,0.00
2022-10-26T04:31:02.348Z,0.00
2022-10-26T04:32:02.378Z,0.00
2022-10-26T04:33:02.404Z,0.00
2022-10-26T04:34:02.456Z,0.00
2022-10-26T04:35:02.459Z,0.00
2022-10-26T04:36:02.487Z,0.00
2022-10-26T04:37:02.513Z,0.00
2022-10-26T04:38:02.542Z,0.00
2022-10-26T04:39:02.565Z,0.00
2022-10-26T04:40:02.642Z,0.00
2022-10-26T04:41:02.620Z,0.00
2022-10-26T04:42:02.650Z,0.00
2022-10-26T04:43:02.675Z,0.00
2022-10-26T04:44:02.712Z,0.00
2022-10-26T04:45:02.749Z,0.00
2022-10-26T04:46:02.760Z,0.00
2022-10-26T04:47:02.935Z,0.00
2022-10-26T04:48:02.912Z,0.00
2022-10-26T04:49:02.892Z,0.00
2022-10-26T04:50:02.918Z,0.00
2022-10-26T04:51:02.896Z,0.00
2022-10-26T04:52:02.921Z,0.00
2022-10-26T04:53:02.950Z,0.00
2022-10-26T04:54:02.976Z,0.00
2022-10-26T04:55:03.012Z,0.00
2022-10-26T04:56:03.030Z,0.00
2022-10-26T04:57:03.060Z,0.00
2022-10-26T04:58:03.135Z,0.00
2022-10-26T04:59:03.113Z,0.00
2022-10-26T05:00:03.148Z,0.00
2022-10-26T05:01:03.352Z,0.00
2022-10-26T05:02:03.444Z,0.00
2022-10-26T05:03:03.224Z,0.00
2022-10-26T05:04:03.250Z,0.00
2022-10-26T05:06:03.303Z,0.00
2022-10-26T05:07:03.331Z,0.00
2022-10-26T05:08:03.357Z,0.00
2022-10-26T05:09:03.385Z,0.00
2022-10-26T05:10:03.412Z,0.00
2022-10-26T05:11:03.440Z,0.00
2022-10-26T05:12:03.465Z,0.00
2022-10-26T05:13:03.500Z,0.00
2022-10-26T05:14:03.529Z,0.00
2022-10-26T05:15:06.355Z,0.00
2022-10-26T05:16:03.576Z,0.00
2022-10-26T05:17:03.621Z,0.00
2022-10-26T05:18:03.632Z,0.00
2022-10-26T05:19:03.662Z,0.00
2022-10-26T05:20:03.684Z,0.00
2022-10-26T05:21:03.715Z,0.00
2022-10-26T05:22:03.741Z,0.00
2022-10-26T05:23:03.768Z,0.00
2022-10-26T05:24:04.585Z,0.00
2022-10-26T05:25:03.822Z,0.00
2022-10-26T05:26:03.849Z,0.00
2022-10-26T05:27:03.876Z,0.00
2022-10-26T05:28:03.903Z,0.00
2022-10-26T05:29:03.937Z,0.00
2022-10-26T05:30:04.014Z,0.00
2022-10-26T05:31:03.987Z,0.00
2022-10-26T05:32:04.017Z,0.00
2022-10-26T05:33:04.063Z,0.00
2022-10-26T05:34:04.067Z,0.00
2022-10-26T05:35:04.095Z,0.00
2022-10-26T05:36:04.122Z,0.00
2022-10-26T05:37:04.152Z,0.00
2022-10-26T05:38:04.178Z,0.00
2022-10-26T05:39:04.206Z,0.00
2022-10-26T05:40:04.232Z,0.00
2022-10-26T05:41:04.262Z,0.00
2022-10-26T05:42:04.287Z,0.00
2022-10-26T05:43:04.316Z,0.00
2022-10-26T05:44:04.342Z,0.00
2022-10-26T05:45:04.373Z,0.00
2022-10-26T05:46:04.463Z,0.00
2022-10-26T05:47:04.426Z,0.00
2022-10-26T05:48:04.452Z,0.00
2022-10-26T05:49:04.500Z,0.00
2022-10-26T05:50:04.507Z,0.00
2022-10-26T05:51:04.535Z,0.00
2022-10-26T05:52:04.563Z,0.00
2022-10-26T05:53:04.591Z,0.00
2022-10-26T05:54:04.617Z,0.00
2022-10-26T05:55:04.690Z,0.00
2022-10-26T05:56:06.173Z,0.00
2022-10-26T05:57:04.701Z,0.00
2022-10-26T05:58:04.730Z,0.00
2022-10-26T05:59:04.755Z,0.00
2022-10-26T06:00:04.781Z,0.00
2022-10-26T06:01:04.868Z,0.00
2022-10-26T06:02:04.922Z,0.00
2022-10-26T06:03:04.866Z,0.00
2022-10-26T06:04:04.891Z,0.00
2022-10-26T06:05:04.946Z,0.00
2022-10-26T06:06:06.709Z,0.00
2022-10-26T06:07:04.977Z,0.00
2022-10-26T06:08:05.001Z,0.00
2022-10-26T06:09:05.033Z,0.00
2022-10-26T06:10:05.057Z,0.00
2022-10-26T06:11:05.086Z,0.00
2022-10-26T06:12:05.121Z,0.00
2022-10-26T06:13:05.141Z,0.00
2022-10-26T06:14:05.167Z,0.00
2022-10-26T06:15:05.196Z,0.00
2022-10-26T06:16:05.222Z,0.00
2022-10-26T06:17:05.251Z,0.00
2022-10-26T06:18:05.286Z,0.00
2022-10-26T06:19:05.307Z,0.00
2022-10-26T06:20:05.372Z,0.00
2022-10-26T06:21:05.420Z,0.00
2022-10-26T06:22:05.387Z,0.00
2022-10-26T06:23:05.414Z,0.00
2022-10-26T06:24:05.443Z,0.00
2022-10-26T06:25:05.473Z,0.00
2022-10-26T06:26:05.497Z,0.00
2022-10-26T06:27:05.527Z,0.00
2022-10-26T06:28:05.553Z,0.00
2022-10-26T06:29:05.582Z,0.00
2022-10-26T06:30:05.608Z,0.00
2022-10-26T06:31:05.634Z,0.00
2022-10-26T06:32:05.661Z,0.00
2022-10-26T06:33:18.488Z,0.00
2022-10-26T06:34:05.716Z,0.00
2022-10-26T06:35:07.214Z,0.00
2022-10-26T06:36:05.774Z,0.00
2022-10-26T06:37:05.823Z,0.00
2022-10-26T06:38:05.830Z,5.63
2022-10-26T06:39:05.862Z,5.63
2022-10-26T06:40:05.883Z,5.63
2022-10-26T06:41:05.912Z,5.63
2022-10-26T06:42:05.938Z,5.63
2022-10-26T06:43:05.971Z,5.63
2022-10-26T06:44:05.992Z,11.25
2022-10-26T06:45:06.048Z,11.25
2022-10-26T06:46:06.049Z,11.25
2022-10-26T06:47:06.081Z,11.25
2022-10-26T06:48:06.103Z,11.25
2022-10-26T06:49:06.131Z,11.25
2022-10-26T06:50:06.160Z,11.25
2022-10-26T06:51:06.186Z,11.25
2022-10-26T06:52:06.212Z,11.25
2022-10-26T06:53:06.267Z,11.25
2022-10-26T06:54:06.269Z,5.63
2022-10-26T06:55:06.296Z,5.63
2022-10-26T06:56:06.324Z,5.63
2022-10-26T06:57:06.351Z,5.63
2022-10-26T06:58:06.380Z,5.63
2022-10-26T06:59:07.109Z,5.63
2022-10-26T07:00:06.435Z,5.63
2022-10-26T07:01:06.508Z,5.63
2022-10-26T07:02:06.843Z,5.63
2022-10-26T07:03:06.594Z,5.63
2022-10-26T07:04:06.544Z,5.63
2022-10-26T07:05:06.572Z,11.25
2022-10-26T07:06:06.647Z,11.25
2022-10-26T07:07:06.627Z,11.25
2022-10-26T07:08:06.651Z,11.25
2022-10-26T07:09:06.704Z,11.25
2022-10-26T07:10:06.708Z,11.25
2022-10-26T07:11:06.745Z,11.25
2022-10-26T07:12:06.763Z,11.25
2022-10-26T07:13:06.791Z,11.25
2022-10-26T07:14:06.818Z,11.25
2022-10-26T07:15:06.845Z,16.88
2022-10-26T07:16:06.873Z,16.88
2022-10-26T07:17:06.902Z,16.88
2022-10-26T07:18:06.926Z,22.50
2022-10-26T07:19:06.953Z,22.50
2022-10-26T07:20:06.985Z,22.50
2022-10-26T07:21:07.008Z,28.13
2022-10-26T07:22:07.035Z,28.13
2022-10-26T07:23:07.067Z,28.13
2022-10-26T07:24:07.089Z,28.13
2022-10-26T07:25:07.139Z,33.75
2022-10-26T07:26:07.144Z,33.75
2022-10-26T07:27:07.171Z,33.75
2022-10-26T07:28:07.198Z,33.75
2022-10-26T07:29:07.226Z,33.75
2022-10-26T07:30:07.257Z,33.75
2022-10-26T07:31:07.285Z,33.75
2022-10-26T07:32:07.305Z,33.75
2022-10-26T07:33:07.341Z,33.75
2022-10-26T07:34:07.361Z,33.75
2022-10-26T07:35:07.392Z,33.75
2022-10-26T07:36:07.415Z,33.75
2022-10-26T07:37:07.444Z,33.75
2022-10-26T07:38:07.474Z,39.38
2022-10-26T07:39:07.499Z,39.38
2022-10-26T07:40:07.700Z,45.00
2022-10-26T07:41:07.574Z,50.63
2022-10-26T07:42:07.581Z,56.25
2022-10-26T07:43:07.609Z,61.88
2022-10-26T07:44:07.635Z,61.88
2022-10-26T07:45:07.664Z,61.88
2022-10-26T07:46:07.689Z,73.13
2022-10-26T07:47:07.719Z,73.13
2022-10-26T07:48:07.745Z,73.13
2022-10-26T07:49:07.774Z,73.13
2022-10-26T07:50:07.799Z,73.13
2022-10-26T07:51:07.828Z,78.75
2022-10-26T07:52:07.855Z,84.38
2022-10-26T07:53:07.881Z,84.38
2022-10-26T07:54:07.911Z,84.38
2022-10-26T07:55:07.937Z,84.38
2022-10-26T07:56:07.962Z,84.38
2022-10-26T07:57:08.038Z,90.00
2022-10-26T07:58:08.020Z,90.00
2022-10-26T07:59:08.049Z,90.00
2022-10-26T08:00:08.073Z,95.63
2022-10-26T08:01:08.285Z,95.63
2022-10-26T08:02:08.211Z,95.63
2022-10-26T08:03:08.157Z,95.63
2022-10-26T08:04:08.187Z,95.63
2022-10-26T08:05:08.214Z,90.00
2022-10-26T08:06:08.242Z,84.38
2022-10-26T08:07:08.272Z,90.00
2022-10-26T08:08:08.295Z,90.00
2022-10-26T08:09:08.324Z,90.00
2022-10-26T08:10:08.353Z,90.00
2022-10-26T08:11:08.378Z,90.00
2022-10-26T08:12:08.404Z,90.00
2022-10-26T08:13:08.453Z,90.00
2022-10-26T08:14:08.461Z,90.00
2022-10-26T08:15:08.488Z,90.00
2022-10-26T08:16:08.515Z,90.00
2022-10-26T08:17:08.547Z,95.63
2022-10-26T08:18:08.571Z,95.63
2022-10-26T08:19:08.597Z,95.63
2022-10-26T08:20:08.627Z,90.00
2022-10-26T08:21:13.537Z,90.00
2022-10-26T08:22:08.706Z,90.00
2022-10-26T08:23:08.713Z,90.00
2022-10-26T08:24:08.739Z,90.00
2022-10-26T08:25:08.765Z,90.00
2022-10-26T08:26:08.792Z,90.00
2022-10-26T08:27:08.824Z,90.00
2022-10-26T08:28:08.848Z,95.63
2022-10-26T08:29:08.901Z,95.63
2022-10-26T08:30:08.902Z,95.63
2022-10-26T08:31:08.933Z,95.63
2022-10-26T08:32:08.959Z,95.63
2022-10-26T08:33:08.989Z,95.63
2022-10-26T08:34:09.015Z,95.63
2022-10-26T08:35:09.048Z,95.63
2022-10-26T08:36:09.068Z,95.63
2022-10-26T08:37:09.098Z,95.63
2022-10-26T08:38:09.125Z,95.63
2022-10-26T08:39:09.154Z,95.63
2022-10-26T08:40:09.181Z,95.63
2022-10-26T08:41:09.215Z,95.63
2022-10-26T08:42:09.240Z,95.63
2022-10-26T08:43:09.265Z,101.25
2022-10-26T08:44:09.297Z,112.50
2022-10-26T08:45:09.340Z,123.75
2022-10-26T08:46:09.364Z,135.00
2022-10-26T08:47:09.411Z,146.25
2022-10-26T08:48:09.402Z,157.50
2022-10-26T08:49:09.433Z,157.50
2022-10-26T08:50:09.463Z,151.88
2022-10-26T08:51:12.173Z,151.88
2022-10-26T08:52:09.519Z,140.63
2022-10-26T08:53:09.545Z,135.00
2022-10-26T08:54:09.576Z,135.00
2022-10-26T08:55:09.600Z,135.00
2022-10-26T08:56:09.634Z,135.00
2022-10-26T08:57:09.657Z,135.00
2022-10-26T08:58:09.689Z,135.00
2022-10-26T08:59:09.714Z,129.38
2022-10-26T09:00:09.747Z,118.13
2022-10-26T09:01:09.930Z,112.50
2022-10-26T09:02:09.803Z,101.25
2022-10-26T09:03:09.830Z,95.63
2022-10-26T09:04:09.858Z,95.63
2022-10-26T09:05:09.889Z,101.25
2022-10-26T09:06:09.918Z,106.88
2022-10-26T09:07:09.944Z,112.50
2022-10-26T09:08:09.973Z,118.13
2022-10-26T09:09:10.004Z,123.75
2022-10-26T09:10:10.030Z,123.75
2022-10-26T09:11:10.061Z,123.75
2022-10-26T09:12:10.088Z,123.75
2022-10-26T09:13:10.120Z,123.75
2022-10-26T09:14:10.145Z,123.75
2022-10-26T09:15:10.175Z,123.75
2022-10-26T09:16:10.203Z,118.13
2022-10-26T09:17:10.303Z,118.13
2022-10-26T09:18:10.263Z,118.13
2022-10-26T09:19:10.291Z,112.50
2022-10-26T09:20:10.318Z,112.50
2022-10-26T09:21:10.349Z,112.50
2022-10-26T09:22:10.396Z,118.13
2022-10-26T09:23:10.408Z,118.13
2022-10-26T09:24:10.435Z,118.13
2022-10-26T09:25:10.467Z,118.13
2022-10-26T09:26:10.493Z,123.75
2022-10-26T09:27:10.524Z,129.38
2022-10-26T09:28:10.550Z,135.00
2022-10-26T09:29:10.580Z,135.00
2022-10-26T09:30:10.609Z,146.25
2022-10-26T09:31:10.639Z,140.63
2022-10-26T09:32:10.669Z,135.00
2022-10-26T09:33:10.716Z,118.13
2022-10-26T09:34:10.724Z,112.50
2022-10-26T09:35:10.755Z,112.50
2022-10-26T09:36:13.277Z,123.75
2022-10-26T09:37:10.815Z,123.75
2022-10-26T09:38:10.842Z,123.75
2022-10-26T09:39:10.871Z,106.88
2022-10-26T09:40:10.900Z,101.25
2022-10-26T09:41:10.932Z,112.50
2022-10-26T09:42:10.961Z,129.38
2022-10-26T09:43:10.989Z,140.63
2022-10-26T09:44:11.016Z,135.00
2022-10-26T09:45:11.048Z,140.63
2022-10-26T09:46:11.074Z,140.63
2022-10-26T09:47:11.104Z,140.63
2022-10-26T09:48:11.132Z,129.38
2022-10-26T09:49:11.189Z,123.75
2022-10-26T09:50:11.191Z,112.50
2022-10-26T09:51:11.222Z,106.88
2022-10-26T09:53:11.286Z,101.25
2022-10-26T09:54:11.307Z,101.25
2022-10-26T09:55:11.339Z,95.63
2022-10-26T09:56:11.365Z,95.63
2022-10-26T09:57:11.396Z,95.63
2022-10-26T09:58:11.424Z,95.63
2022-10-26T09:59:11.454Z,95.63
2022-10-26T10:00:11.482Z,95.63
2022-10-26T10:01:11.552Z,95.63
2022-10-26T10:02:11.541Z,95.63
2022-10-26T10:03:11.622Z,95.63
2022-10-26T10:04:11.598Z,95.63
2022-10-26T10:05:16.428Z,95.63
2022-10-26T10:06:11.656Z,95.63
2022-10-26T10:07:11.734Z,95.63
2022-10-26T10:08:11.715Z,95.63
2022-10-26T10:09:11.774Z,95.63
2022-10-26T10:10:11.776Z,95.63
2022-10-26T10:11:11.804Z,95.63
2022-10-26T10:12:11.832Z,95.63
2022-10-26T10:13:11.864Z,95.63
2022-10-26T10:14:11.891Z,95.63
2022-10-26T10:15:11.921Z,95.63
2022-10-26T10:16:11.949Z,95.63
2022-10-26T10:17:11.991Z,95.63
2022-10-26T10:18:12.008Z,95.63
2022-10-26T10:19:12.039Z,95.63
2022-10-26T10:20:12.066Z,95.63
2022-10-26T10:21:12.121Z,95.63
2022-10-26T10:22:12.126Z,95.63
2022-10-26T10:23:12.154Z,95.63
2022-10-26T10:24:12.184Z,95.63
2022-10-26T10:25:12.214Z,95.63
2022-10-26T10:26:12.245Z,95.63
2022-10-26T10:27:12.279Z,95.63
2022-10-26T10:28:12.356Z,95.63
2022-10-26T10:29:12.332Z,95.63
2022-10-26T10:30:12.360Z,95.63
2022-10-26T10:31:12.428Z,95.63
2022-10-26T10:32:12.419Z,95.63
2022-10-26T10:33:12.450Z,95.63
2022-10-26T10:34:12.479Z,95.63
2022-10-26T10:35:12.507Z,95.63
2022-10-26T10:36:12.536Z,95.63
2022-10-26T10:37:12.596Z,95.63
2022-10-26T10:38:12.596Z,95.63
2022-10-26T10:39:12.627Z,95.63
2022-10-26T10:40:14.275Z,95.63
2022-10-26T10:41:12.685Z,95.63
2022-10-26T10:42:12.713Z,95.63
2022-10-26T10:43:12.743Z,95.63
2022-10-26T10:44:12.772Z,95.63
2022-10-26T10:45:12.804Z,95.63
2022-10-26T10:46:12.840Z,95.63
2022-10-26T10:47:12.862Z,95.63
2022-10-26T10:48:12.898Z,95.63
2022-10-26T10:49:12.921Z,95.63
2022-10-26T10:50:12.949Z,95.63
2022-10-26T10:51:12.982Z,95.63
2022-10-26T10:52:13.010Z,95.63
2022-10-26T10:53:13.158Z,95.63
2022-10-26T10:54:13.067Z,95.63
2022-10-26T10:55:13.097Z,95.63
2022-10-26T10:56:13.125Z,95.63
2022-10-26T10:57:13.156Z,95.63
2022-10-26T10:58:13.186Z,95.63
2022-10-26T10:59:13.213Z,95.63
2022-10-26T11:00:13.247Z,95.63
2022-10-26T11:01:13.429Z,95.63
2022-10-26T11:02:13.532Z,95.63
2022-10-26T11:03:13.333Z,95.63
2022-10-26T11:05:13.394Z,95.63
2022-10-26T11:06:13.424Z,95.63
2022-10-26T11:07:13.453Z,95.63
2022-10-26T11:08:13.482Z,95.63
2022-10-26T11:09:13.532Z,95.63
2022-10-26T11:10:13.539Z,101.25
2022-10-26T11:11:13.573Z,101.25
2022-10-26T11:12:13.599Z,101.25
2022-10-26T11:13:13.632Z,101.25
2022-10-26T11:14:13.661Z,101.25
2022-10-26T11:15:13.698Z,101.25
2022-10-26T11:16:13.719Z,101.25
2022-10-26T11:17:13.749Z,101.25
2022-10-26T11:18:13.778Z,101.25
2022-10-26T11:19:13.810Z,95.63
2022-10-26T11:20:15.019Z,101.25
2022-10-26T11:21:13.870Z,95.63
2022-10-26T11:22:13.899Z,95.63
2022-10-26T11:23:13.929Z,95.63
2022-10-26T11:24:13.956Z,101.25
2022-10-26T11:25:14.008Z,101.25
2022-10-26T11:26:14.018Z,101.25
2022-10-26T11:27:14.048Z,106.88
2022-10-26T11:28:14.076Z,101.25
2022-10-26T11:29:14.170Z,95.63
2022-10-26T11:30:14.291Z,101.25
2022-10-26T11:31:14.166Z,106.88
2022-10-26T11:32:14.197Z,106.88
2022-10-26T11:33:14.226Z,112.50
2022-10-26T11:34:14.255Z,118.13
2022-10-26T11:35:14.287Z,123.75
2022-10-26T11:36:17.219Z,135.00
2022-10-26T11:37:14.347Z,146.25
2022-10-26T11:38:16.100Z,140.63
2022-10-26T11:39:14.409Z,129.38
2022-10-26T11:40:14.460Z,129.38
2022-10-26T11:41:14.488Z,123.75
2022-10-26T11:42:14.500Z,106.88
2022-10-26T11:43:14.527Z,112.50
2022-10-26T11:44:14.556Z,118.13
2022-10-26T11:45:14.588Z,123.75
2022-10-26T11:46:16.698Z,101.25
2022-10-26T11:47:14.648Z,118.13
2022-10-26T11:48:14.678Z,118.13
2022-10-26T11:49:14.709Z,118.13
2022-10-26T11:50:17.349Z,106.88
2022-10-26T11:51:14.768Z,95.63
2022-10-26T11:52:14.800Z,95.63
2022-10-26T11:53:14.829Z,106.88
2022-10-26T11:54:14.893Z,112.50
2022-10-26T11:55:14.890Z,95.63
2022-10-26T11:56:14.918Z,101.25
2022-10-26T11:57:14.978Z,106.88
2022-10-26T11:58:14.990Z,106.88
2022-10-26T11:59:15.015Z,106.88
2022-10-26T12:00:15.056Z,95.63
2022-10-26T12:01:15.169Z,95.63
2022-10-26T12:02:15.102Z,101.25
2022-10-26T12:03:15.135Z,106.88
2022-10-26T12:04:15.166Z,112.50
2022-10-26T12:05:15.195Z,106.88
2022-10-26T12:06:15.224Z,106.88
2022-10-26T12:07:15.254Z,101.25
2022-10-26T12:08:15.284Z,95.63
2022-10-26T12:09:15.316Z,101.25
2022-10-26T12:10:15.345Z,101.25
2022-10-26T12:11:15.376Z,101.25
2022-10-26T12:12:15.405Z,112.50
2022-10-26T12:13:15.459Z,123.75
2022-10-26T12:14:15.469Z,123.75
2022-10-26T12:15:15.497Z,123.75
2022-10-26T12:16:15.528Z,123.75
2022-10-26T12:17:15.560Z,129.38
2022-10-26T12:18:16.151Z,135.00
2022-10-26T12:19:15.655Z,135.00
2022-10-26T12:20:15.649Z,129.38
2022-10-26T12:21:15.682Z,123.75
2022-10-26T12:22:15.715Z,123.75
2022-10-26T12:23:23.188Z,123.75
2022-10-26T12:24:15.772Z,123.75
2022-10-26T12:25:15.870Z,118.13
2022-10-26T12:26:15.834Z,123.75
2022-10-26T12:27:15.866Z,135.00
2022-10-26T12:28:15.894Z,129.38
2022-10-26T12:29:16.036Z,135.00
2022-10-26T12:30:15.957Z,129.38
2022-10-26T12:31:15.987Z,135.00
2022-10-26T12:32:16.017Z,135.00
2022-10-26T12:33:16.051Z,140.63
2022-10-26T12:34:16.078Z,146.25
2022-10-26T12:35:16.113Z,135.00
2022-10-26T12:36:16.140Z,135.00
2022-10-26T12:37:16.175Z,129.38
2022-10-26T12:38:16.202Z,123.75
2022-10-26T12:39:16.234Z,118.13
2022-10-26T12:40:16.262Z,118.13
2022-10-26T12:41:16.296Z,123.75
2022-10-26T12:42:16.325Z,123.75
2022-10-26T12:43:16.373Z,129.38
2022-10-26T12:44:16.387Z,140.63
2022-10-26T12:45:16.440Z,140.63
2022-10-26T12:46:16.450Z,146.25
2022-10-26T12:47:16.484Z,135.00
2022-10-26T12:48:27.626Z,129.38
2022-10-26T12:49:16.546Z,123.75
2022-10-26T12:50:16.575Z,123.75
2022-10-26T12:51:16.605Z,129.38
2022-10-26T12:52:16.639Z,123.75
2022-10-26T12:53:16.669Z,123.75
2022-10-26T12:54:16.699Z,123.75
2022-10-26T12:55:16.733Z,123.75
2022-10-26T12:56:16.762Z,123.75
2022-10-26T12:57:16.791Z,123.75
2022-10-26T12:58:16.826Z,118.13
2022-10-26T12:59:16.857Z,118.13
2022-10-26T13:00:16.884Z,118.13
2022-10-26T13:01:16.970Z,112.50
2022-10-26T13:02:16.949Z,112.50
2022-10-26T13:03:16.982Z,118.13
2022-10-26T13:04:17.018Z,123.75
2022-10-26T13:05:17.042Z,112.50
2022-10-26T13:06:17.073Z,112.50